Time;durP1;ratioP1;P1;durP2;ratioP2;P2;SDS_P1;SDS_P2;PMS_P1;PMS_P2;Temp;Humidity;BMP_temperature;BMP_pressure;BME280_temperature;BME280_humidity;BME280_pressure;Samples;Min_cycle;Max_cycle;Signal;HPM_P1;HPM_P2
2021/12/08 00:00:53;;;;;;;4.25;2.40;;;;;;;1.24;98.82;98853.31;5069758;28;20069;-20
2021/12/08 00:03:19;;;;;;;4.32;2.42;;;;;;;1.35;98.72;98876.47;5087611;28;20028;-19
2021/12/08 00:05:45;;;;;;;4.95;2.58;;;;;;;1.25;98.58;98858.38;5069750;28;20039;-20
2021/12/08 00:08:11;;;;;;;3.55;2.00;;;;;;;1.17;98.21;98864.56;5087930;28;20032;-20
2021/12/08 00:13:09;;;;;;;3.65;1.98;;;;;;;1.26;98.82;98877.59;5087987;28;20051;-20
2021/12/08 00:15:42;;;;;;;4.32;2.75;;;;;;;1.33;99.32;98884.53;5087988;28;20032;-20
2021/12/08 00:18:10;;;;;;;3.80;2.17;;;;;;;1.28;98.81;98892.16;5087770;28;20043;-21
2021/12/08 00:20:36;;;;;;;5.35;3.13;;;;;;;1.32;99.29;98890.78;5069774;28;20024;-21
2021/12/08 00:23:02;;;;;;;6.15;2.88;;;;;;;1.36;99.03;98901.72;5053276;28;20556;-22
2021/12/08 00:25:28;;;;;;;5.50;3.13;;;;;;;1.24;98.60;98888.28;5087943;28;20081;-21
2021/12/08 00:27:53;;;;;;;3.25;2.17;;;;;;;1.46;98.75;98915.34;5087956;28;20035;-20
2021/12/08 00:30:19;;;;;;;4.82;2.58;;;;;;;1.39;98.46;98912.66;5069431;28;20101;-20
2021/12/08 00:32:45;;;;;;;3.97;2.17;;;;;;;1.30;98.48;98894.59;5069468;28;20040;-20
2021/12/08 00:35:11;;;;;;;2.40;1.73;;;;;;;1.41;98.34;98917.75;5087826;28;20024;-20
2021/12/08 00:37:36;;;;;;;4.75;2.75;;;;;;;1.49;98.42;98933.38;5052740;28;20036;-21
2021/12/08 00:40:03;;;;;;;4.47;1.98;;;;;;;1.34;98.08;98901.09;5087493;28;20028;-20
2021/12/08 00:42:29;;;;;;;4.53;2.50;;;;;;;1.47;98.50;98922.25;5087598;28;20039;-20
2021/12/08 00:44:54;;;;;;;4.55;2.30;;;;;;;1.33;98.15;98900.28;5087455;28;20036;-20
2021/12/08 00:47:20;;;;;;;3.47;1.80;;;;;;;1.44;98.42;98922.59;5069214;28;20032;-20
2021/12/08 00:49:46;;;;;;;3.45;2.20;;;;;;;1.45;97.62;98933.94;5069468;28;20491;-20
2021/12/08 00:52:14;;;;;;;4.13;2.50;;;;;;;1.43;97.94;98925.41;5087427;28;20119;-20
2021/12/08 00:54:40;;;;;;;3.60;2.22;;;;;;;1.27;97.70;98900.19;5087254;28;20036;-20
2021/12/08 00:57:05;;;;;;;4.38;2.40;;;;;;;1.47;97.84;98916.16;5087355;28;20028;-20
2021/12/08 00:59:31;;;;;;;4.15;2.40;;;;;;;1.35;97.52;98902.75;5086853;28;20054;-20
2021/12/08 01:02:02;;;;;;;3.00;2.03;;;;;;;1.44;97.35;98919.97;5070843;28;20411;-20
2021/12/08 01:04:31;;;;;;;4.65;2.10;;;;;;;1.54;97.17;98924.94;5090872;28;20040;-20
2021/12/08 01:06:56;;;;;;;5.35;2.50;;;;;;;1.54;97.02;98907.34;5091038;28;20120;-20
2021/12/08 01:09:21;;;;;;;4.95;2.88;;;;;;;1.60;97.10;98927.59;5072251;28;20114;-20
2021/12/08 01:11:48;;;;;;;3.08;1.65;;;;;;;1.48;96.48;98921.22;5090931;28;20476;-22
2021/12/08 01:14:13;;;;;;;2.72;1.80;;;;;;;1.47;96.64;98919.63;5090456;28;20039;-20
2021/12/08 01:16:39;;;;;;;2.20;1.65;;;;;;;1.52;96.60;98929.56;5090363;28;20024;-20
2021/12/08 01:19:05;;;;;;;4.10;2.00;;;;;;;1.59;96.43;98925.16;5090658;28;20031;-20
2021/12/08 01:21:30;;;;;;;4.20;2.03;;;;;;;1.54;96.88;98923.09;5090951;28;20032;-20
2021/12/08 01:23:56;;;;;;;3.88;2.38;;;;;;;1.62;96.50;98930.06;5072653;28;20031;-20
2021/12/08 01:26:21;;;;;;;2.55;1.80;;;;;;;1.49;96.31;98936.00;5072548;28;20093;-20
2021/12/08 01:28:46;;;;;;;5.22;2.50;;;;;;;1.50;97.01;98927.13;5090400;28;20052;-20
2021/12/08 01:31:12;;;;;;;3.30;2.13;;;;;;;1.52;97.46;98940.88;5090428;28;20028;-20
2021/12/08 01:33:38;;;;;;;5.13;1.75;;;;;;;1.53;96.66;98932.00;5089818;28;20036;-20
2021/12/08 01:36:05;;;;;;;3.90;2.28;;;;;;;1.40;97.04;98931.88;5090465;28;20043;-21
2021/12/08 01:38:31;;;;;;;3.78;1.80;;;;;;;1.51;97.42;98934.00;5072286;28;20453;-20
2021/12/08 01:40:56;;;;;;;4.55;2.42;;;;;;;1.61;96.71;98941.56;5072279;28;20028;-20
2021/12/08 01:43:39;;;;;;;3.22;2.17;;;;;;;1.57;96.54;98942.94;5089910;28;20036;-20
2021/12/08 01:46:06;;;;;;;4.72;2.35;;;;;;;1.51;96.50;98928.75;5090337;28;20130;-20
2021/12/08 01:48:36;;;;;;;3.85;1.90;;;;;;;1.58;95.84;98940.13;5089978;28;20036;-20
2021/12/08 01:51:13;;;;;;;4.13;2.45;;;;;;;1.60;95.92;98948.63;5089885;28;20518;-21
2021/12/08 01:53:39;;;;;;;3.65;2.10;;;;;;;1.63;96.11;98946.63;5071854;28;20241;-21
2021/12/08 01:56:05;;;;;;;3.50;2.05;;;;;;;1.66;95.59;98956.78;5089842;28;20024;-20
2021/12/08 01:58:31;;;;;;;4.05;2.05;;;;;;;1.69;95.57;98959.03;5071682;28;20149;-20
2021/12/08 02:01:07;;;;;;;3.85;2.15;;;;;;;1.78;94.95;98952.66;5089843;28;20032;-20
2021/12/08 02:03:32;;;;;;;5.13;2.60;;;;;;;1.69;95.59;98951.13;5089671;28;20028;-20
2021/12/08 02:05:58;;;;;;;4.30;2.15;;;;;;;1.71;95.38;98964.91;5071679;28;20472;-20
2021/12/08 02:08:23;;;;;;;4.20;2.53;;;;;;;1.66;95.75;98951.53;5089841;28;20477;-21
2021/12/08 02:10:49;;;;;;;3.92;2.35;;;;;;;1.74;95.45;98964.53;5089679;28;20038;-21
2021/12/08 02:13:14;;;;;;;3.60;2.15;;;;;;;1.74;95.22;98959.28;5088998;28;20061;-20
2021/12/08 02:15:40;;;;;;;4.97;2.15;;;;;;;1.87;95.21;98975.16;5089263;28;20036;-20
2021/12/08 02:18:07;;;;;;;4.70;1.95;;;;;;;1.75;94.15;98968.78;5089397;28;20206;-20
2021/12/08 02:20:32;;;;;;;2.95;1.70;;;;;;;1.63;94.79;98951.88;5089505;28;20036;-20
2021/12/08 02:22:58;;;;;;;3.08;1.88;;;;;;;1.71;94.99;98975.41;5071271;28;20069;-20
2021/12/08 02:25:24;;;;;;;3.75;2.10;;;;;;;1.49;95.05;98936.00;5070790;28;20134;-20
2021/12/08 02:27:50;;;;;;;3.22;2.38;;;;;;;1.59;95.13;98965.41;5089449;28;20032;-21
2021/12/08 02:46:45;;;;;;;4.32;2.20;;;;;;;1.80;94.69;98988.25;5088861;28;20034;-20
2021/12/08 02:49:10;;;;;;;3.95;2.40;;;;;;;1.75;94.98;98993.25;5088809;28;20032;-20
2021/12/08 02:51:36;;;;;;;4.32;2.42;;;;;;;1.68;95.35;98981.06;5088921;28;20114;-21
2021/12/08 02:54:02;;;;;;;4.63;2.47;;;;;;;1.69;95.40;98972.16;5088852;28;20035;-20
2021/12/08 02:56:28;;;;;;;4.05;2.30;;;;;;;1.74;94.82;98975.06;5070879;28;20035;-20
2021/12/08 02:58:53;;;;;;;4.15;2.40;;;;;;;1.84;94.82;98985.22;5088787;28;20036;-20
2021/12/08 03:01:19;;;;;;;4.03;2.67;;;;;;;1.83;94.56;99002.81;5088459;28;20035;-20
2021/12/08 03:03:44;;;;;;;3.63;2.20;;;;;;;1.61;94.58;98962.56;5053977;28;20043;-20
2021/12/08 03:06:11;;;;;;;3.83;1.95;;;;;;;1.74;94.00;98990.81;5088426;28;20024;-21
2021/12/08 03:08:37;;;;;;;4.25;2.38;;;;;;;1.72;93.88;98992.81;5070625;28;20028;-20
2021/12/08 03:11:02;;;;;;;5.63;2.88;;;;;;;1.83;94.17;99005.44;5088378;28;20492;-20
2021/12/08 03:13:32;;;;;;;4.43;2.55;;;;;;;1.84;94.39;99001.00;5088247;28;20036;-21
2021/12/08 03:15:58;;;;;;;4.88;2.78;;;;;;;1.87;94.01;98996.19;5088406;28;20101;-20
2021/12/08 03:18:31;;;;;;;3.33;2.40;;;;;;;1.91;93.49;99012.41;5088228;28;20408;-21
2021/12/08 03:20:56;;;;;;;2.78;1.95;;;;;;;1.80;93.61;99004.03;5088604;28;20032;-20
2021/12/08 03:23:28;;;;;;;3.58;1.95;;;;;;;1.83;93.57;99015.16;5070274;28;20479;-20
2021/12/08 03:25:56;;;;;;;5.30;2.60;;;;;;;1.74;93.86;99011.84;5088333;28;20535;-20
2021/12/08 03:28:26;;;;;;;5.05;2.47;;;;;;;1.78;93.42;99024.44;5070557;28;20059;-20
2021/12/08 03:31:02;;;;;;;3.63;2.50;;;;;;;1.81;93.50;99033.75;5087964;28;20024;-21
2021/12/08 03:33:27;;;;;;;3.72;2.63;;;;;;;1.73;93.46;99047.00;5088217;28;20028;-20
2021/12/08 03:35:53;;;;;;;4.35;2.45;;;;;;;1.64;93.28;99013.97;5069973;28;20034;-20
2021/12/08 03:38:19;;;;;;;4.60;2.72;;;;;;;1.89;93.65;99049.38;5088391;28;20092;-20
2021/12/08 03:40:44;;;;;;;4.18;2.60;;;;;;;1.69;92.46;99030.78;5053436;28;20840;-20
2021/12/08 03:43:12;;;;;;;3.85;2.45;;;;;;;1.82;92.58;99056.41;5087945;28;20032;-20
2021/12/08 03:45:40;;;;;;;5.10;2.00;;;;;;;1.74;92.33;99044.19;5087616;28;20432;-20
2021/12/08 03:48:08;;;;;;;3.33;2.03;;;;;;;1.79;93.12;99041.00;5088296;28;20862;-20
2021/12/08 03:50:36;;;;;;;4.70;2.75;;;;;;;1.69;92.29;99045.75;5088289;28;20036;-20
2021/12/08 03:53:01;;;;;;;5.07;2.55;;;;;;;1.82;92.02;99069.56;5088070;28;20070;-21
2021/12/08 03:55:27;;;;;;;3.92;2.10;;;;;;;1.92;91.65;99056.91;5088022;28;20146;-20
2021/12/08 03:57:52;;;;;;;4.28;2.53;;;;;;;1.95;91.86;99060.97;5069415;28;20028;-20
2021/12/08 04:00:20;;;;;;;4.47;2.20;;;;;;;1.83;91.88;99073.81;5087847;28;20118;-20
2021/12/08 04:02:45;;;;;;;4.57;2.33;;;;;;;1.75;91.14;99066.03;5088237;28;20566;-20
2021/12/08 04:05:11;;;;;;;3.72;2.17;;;;;;;1.83;91.64;99067.72;5087724;28;20274;-21
2021/12/08 04:07:43;;;;;;;3.30;2.17;;;;;;;1.86;91.11;99077.88;5086156;28;20487;-20
2021/12/08 04:10:16;;;;;;;4.18;2.05;;;;;;;1.88;90.57;99058.28;5088052;28;20045;-20
2021/12/08 04:12:42;;;;;;;4.47;2.15;;;;;;;1.89;90.51;99072.25;5087865;28;20062;-21
2021/12/08 04:15:08;;;;;;;4.70;2.25;;;;;;;1.94;90.93;99054.91;5069641;28;20059;-20
2021/12/08 04:17:36;;;;;;;4.55;2.40;;;;;;;1.95;91.06;99074.13;5087492;28;20032;-20
2021/12/08 04:20:35;;;;;;;5.35;2.35;;;;;;;1.87;89.72;99090.84;5087414;28;20109;-20
2021/12/08 04:23:01;;;;;;;3.85;2.50;;;;;;;1.77;89.74;99067.47;5083679;28;20040;-20
2021/12/08 04:25:31;;;;;;;4.60;2.63;;;;;;;1.91;90.24;99083.41;5087733;28;20032;-20
2021/12/08 04:27:58;;;;;;;4.20;2.53;;;;;;;1.97;90.02;99091.34;5087315;28;20032;-21
2021/12/08 04:30:27;;;;;;;5.40;2.85;;;;;;;1.85;88.80;99071.81;5086358;28;20052;-20
2021/12/08 04:32:52;;;;;;;4.28;2.50;;;;;;;1.97;88.84;99093.97;5085712;28;20093;-20
2021/12/08 04:35:20;;;;;;;5.35;3.13;;;;;;;2.14;88.79;99101.63;5069325;28;20028;-20
2021/12/08 04:37:49;;;;;;;6.05;3.10;;;;;;;2.10;88.27;99087.22;5089888;28;20546;-20
2021/12/08 04:40:42;;;;;;;;;;;;;;;2.24;88.63;99107.38;5091988;28;20040;-20
2021/12/08 04:43:17;;;;;;;3.92;2.38;;;;;;;2.12;86.95;99087.84;5076041;28;19942;-21
2021/12/08 05:00:20;;;;;;;6.10;2.78;;;;;;;2.29;84.53;99115.53;5091045;28;20038;-21
2021/12/08 05:09:28;;;;;;;6.30;3.35;;;;;;;2.13;83.43;99092.91;5090833;28;19916;-20
2021/12/08 05:12:04;;;;;;;6.95;3.05;;;;;;;2.33;83.28;99127.31;5090961;28;20036;-20
2021/12/08 05:14:33;;;;;;;4.90;2.53;;;;;;;2.48;82.40;99134.31;5056082;28;20415;-20
2021/12/08 05:17:05;;;;;;;6.05;2.97;;;;;;;2.33;81.73;99106.25;5090716;28;20039;-20
2021/12/08 05:19:32;;;;;;;4.78;3.03;;;;;;;2.53;81.10;99137.19;5090905;28;20028;-20
2021/12/08 05:22:10;;;;;;;4.95;2.67;;;;;;;2.58;80.39;99140.88;5090715;28;20032;-20
2021/12/08 05:24:38;;;;;;;5.47;3.38;;;;;;;2.61;81.31;99155.47;5072455;28;20043;-20
2021/12/08 05:27:11;;;;;;;;;;;;;;;2.63;79.30;99157.91;5091045;28;20040;-21
2021/12/08 05:29:49;;;;;;;6.70;2.97;;;;;;;2.59;79.34;99146.94;5090181;28;19923;-20
2021/12/08 05:32:15;;;;;;;10.95;5.72;;;;;;;2.75;79.43;99156.41;5072322;28;20515;-20
2021/12/08 05:34:40;;;;;;;13.15;6.55;;;;;;;2.82;79.16;99167.81;5090379;28;20036;-20
2021/12/08 05:37:07;;;;;;;6.53;4.03;;;;;;;2.72;77.93;99123.38;5090228;28;20419;-20
2021/12/08 05:39:32;;;;;;;7.35;4.55;;;;;;;2.78;78.13;99145.50;5072145;28;20024;-20
2021/12/08 05:42:07;;;;;;;6.82;4.28;;;;;;;2.84;78.12;99159.69;5090113;28;20028;-20
2021/12/08 05:44:32;;;;;;;7.78;4.85;;;;;;;2.71;78.86;99157.78;5090353;28;20047;-20
2021/12/08 05:46:59;;;;;;;7.00;4.32;;;;;;;2.72;77.04;99157.59;5090292;28;20030;-20
2021/12/08 05:49:25;;;;;;;7.75;4.53;;;;;;;2.80;77.91;99162.72;5088736;28;20028;-20
2021/12/08 05:51:51;;;;;;;7.15;3.80;;;;;;;2.89;77.37;99192.38;5090122;28;20032;-20
2021/12/08 05:54:23;;;;;;;8.32;4.32;;;;;;;2.87;77.13;99188.31;5090172;28;20032;-21
2021/12/08 05:56:49;;;;;;;6.28;3.72;;;;;;;2.88;76.85;99187.28;5072560;28;20031;-20
2021/12/08 05:59:15;;;;;;;7.97;4.20;;;;;;;2.74;77.08;99187.19;5071641;28;20069;-21
2021/12/08 06:01:45;;;;;;;7.70;4.63;;;;;;;2.91;77.50;99213.25;5089749;28;20032;-21
2021/12/08 06:04:11;;;;;;;7.68;4.40;;;;;;;2.95;76.55;99201.34;5071957;28;20503;-20
2021/12/08 06:06:37;;;;;;;7.40;4.28;;;;;;;2.96;77.00;99200.31;5089992;28;20028;-20
2021/12/08 06:09:05;;;;;;;8.60;5.05;;;;;;;3.03;77.54;99217.00;5055069;28;20032;-20
2021/12/08 06:11:31;;;;;;;9.60;5.22;;;;;;;3.12;76.95;99221.09;5089411;28;20115;-20
2021/12/08 06:14:00;;;;;;;10.05;5.78;;;;;;;3.08;77.30;99204.06;5071580;28;20119;-21
2021/12/08 06:16:27;;;;;;;10.40;5.60;;;;;;;3.21;77.54;99230.50;5088253;28;20028;-20
2021/12/08 06:18:52;;;;;;;9.85;5.05;;;;;;;3.26;77.09;99221.22;5089540;28;20056;-20
2021/12/08 06:21:19;;;;;;;9.45;5.15;;;;;;;3.11;76.91;99213.41;5089406;28;20032;-21
2021/12/08 06:23:45;;;;;;;8.98;5.00;;;;;;;3.25;77.52;99224.84;5089890;28;20146;-21
2021/12/08 06:26:11;;;;;;;8.27;4.93;;;;;;;3.29;77.02;99236.63;5089625;28;20043;-21
2021/12/08 06:28:37;;;;;;;8.98;4.97;;;;;;;3.27;76.99;99230.75;5071380;28;20135;-20
2021/12/08 06:31:03;;;;;;;8.30;4.35;;;;;;;3.18;76.56;99237.97;5089354;28;20028;-21
2021/12/08 06:33:30;;;;;;;10.35;5.70;;;;;;;3.33;77.21;99232.59;5088931;28;20031;-20
2021/12/08 06:36:00;;;;;;;9.30;5.00;;;;;;;3.22;76.09;99226.84;5089313;28;20415;-21
2021/12/08 06:38:26;;;;;;;10.18;5.35;;;;;;;3.27;77.39;99252.66;5089270;28;20035;-21
2021/12/08 06:40:55;;;;;;;11.32;5.53;;;;;;;3.29;76.58;99249.81;5071338;28;20032;-20
2021/12/08 06:43:23;;;;;;;11.15;6.10;;;;;;;3.15;77.38;99247.09;5089003;28;20476;-20
2021/12/08 06:45:50;;;;;;;9.45;5.45;;;;;;;3.38;77.55;99272.38;5070891;28;20035;-20
2021/12/08 06:48:21;;;;;;;10.63;6.32;;;;;;;3.17;77.27;99252.97;5089066;28;20060;-21
2021/12/08 06:50:55;;;;;;;11.02;6.13;;;;;;;3.11;76.74;99256.38;5089414;28;20030;-20
2021/12/08 06:53:21;;;;;;;11.25;6.53;;;;;;;3.18;77.17;99259.06;5088903;28;20053;-20
2021/12/08 06:55:49;;;;;;;13.60;7.40;;;;;;;3.43;76.29;99277.88;5089049;28;20047;-20
2021/12/08 06:58:20;;;;;;;11.68;6.47;;;;;;;3.27;76.04;99270.25;5088706;28;20039;-20
2021/12/08 07:01:09;;;;;;;12.77;7.15;;;;;;;3.33;76.55;99278.25;5088539;28;20044;-21
2021/12/08 07:09:20;;;;;;;12.35;7.65;;;;;;;3.19;76.17;99287.06;5073427;28;20038;-21
2021/12/08 07:11:45;;;;;;;11.98;6.93;;;;;;;3.16;76.24;99282.16;5088650;28;20080;-20
2021/12/08 07:14:11;;;;;;;13.60;8.85;;;;;;;3.27;75.94;99272.91;5088835;28;20513;-21
2021/12/08 07:16:40;;;;;;;13.77;6.57;;;;;;;3.08;76.08;99261.19;5070358;28;20028;-20
2021/12/08 07:19:28;;;;;;;13.90;8.23;;;;;;;3.28;76.73;99298.25;5088460;28;20027;-21
2021/12/08 07:21:54;;;;;;;12.23;7.50;;;;;;;3.17;76.42;99276.69;5088663;28;20032;-21
2021/12/08 07:24:31;;;;;;;13.13;7.43;;;;;;;3.30;77.10;99297.06;5088682;28;20046;-20
2021/12/08 07:27:03;;;;;;;15.43;8.93;;;;;;;3.29;76.04;99273.53;5088255;28;20028;-21
2021/12/08 07:29:30;;;;;;;13.95;8.32;;;;;;;3.55;75.79;99299.28;5087996;28;20102;-20
2021/12/08 07:32:02;;;;;;;14.45;8.77;;;;;;;3.47;75.68;99300.22;5088195;28;20555;-20
2021/12/08 07:34:28;;;;;;;14.75;7.90;;;;;;;3.51;74.42;99317.28;5037197;28;20074;-21
2021/12/08 07:36:59;;;;;;;12.50;7.22;;;;;;;3.52;74.99;99313.66;5088322;28;20450;-20
2021/12/08 07:39:31;;;;;;;22.35;11.35;;;;;;;3.62;75.48;99315.97;5088094;28;20059;-20
2021/12/08 07:42:04;;;;;;;20.50;9.88;;;;;;;3.73;74.74;99327.81;5088187;28;20032;-21
2021/12/08 07:44:30;;;;;;;21.60;11.75;;;;;;;3.75;75.98;99316.03;5088230;28;20032;-20
2021/12/08 07:46:59;;;;;;;16.67;9.48;;;;;;;3.75;74.84;99315.25;5088541;28;20035;-20
2021/12/08 07:49:33;;;;;;;19.75;10.75;;;;;;;3.77;74.76;99323.78;5070254;28;20874;-20
2021/12/08 07:52:04;;;;;;;15.70;8.75;;;;;;;3.86;74.52;99338.44;5070333;28;20029;-20
2021/12/08 07:54:32;;;;;;;13.50;8.95;;;;;;;3.76;73.31;99312.41;5088182;28;20052;-20
2021/12/08 07:56:59;;;;;;;13.27;7.50;;;;;;;3.88;74.13;99346.97;5088124;28;20651;-20
2021/12/08 07:59:24;;;;;;;15.27;7.72;;;;;;;3.82;74.29;99332.75;5087954;28;20868;-20
2021/12/08 08:01:53;;;;;;;19.63;11.18;;;;;;;3.99;74.96;99351.72;5088145;28;20066;-20
2021/12/08 08:04:20;;;;;;;18.92;11.20;;;;;;;3.91;73.69;99351.06;5070906;28;20040;-21
2021/12/08 08:06:48;;;;;;;16.50;9.40;;;;;;;3.98;73.07;99351.91;5088314;28;20020;-21
2021/12/08 08:09:20;;;;;;;17.23;8.90;;;;;;;3.94;74.25;99361.22;5069997;28;20036;-20
2021/12/08 08:11:54;;;;;;;15.27;9.48;;;;;;;3.95;74.66;99342.56;5071328;28;20028;-20
2021/12/08 08:14:20;;;;;;;20.73;11.20;;;;;;;4.36;74.59;99370.78;5091835;28;20063;-20
2021/12/08 08:16:50;;;;;;;19.17;11.18;;;;;;;4.14;74.32;99342.88;5091793;28;20059;-20
2021/12/08 08:19:18;;;;;;;16.75;10.25;;;;;;;4.34;75.34;99366.72;5092086;28;20039;-20
2021/12/08 08:21:46;;;;;;;18.27;9.35;;;;;;;4.47;73.05;99363.34;5091384;28;20480;-20
2021/12/08 08:24:12;;;;;;;18.40;8.93;;;;;;;4.48;72.48;99362.34;5073629;28;20028;-20
2021/12/08 08:26:38;;;;;;;19.20;10.50;;;;;;;4.45;74.02;99355.59;5091370;28;20028;-21
2021/12/08 08:29:04;;;;;;;18.45;10.93;;;;;;;4.35;73.04;99355.97;5073051;28;20052;-20
2021/12/08 08:31:41;;;;;;;18.55;10.60;;;;;;;4.21;74.15;99341.09;5091356;28;20094;-20
2021/12/08 08:34:09;;;;;;;19.30;10.02;;;;;;;4.25;71.67;99354.69;5091408;28;20038;-20
2021/12/08 08:36:37;;;;;;;16.98;9.07;;;;;;;4.27;73.09;99358.78;5089368;28;20027;-20
2021/12/08 08:39:16;;;;;;;20.00;11.05;;;;;;;4.41;73.30;99368.41;5091278;28;20873;-20
2021/12/08 08:41:44;;;;;;;48.20;17.70;;;;;;;4.61;72.90;99367.66;5090935;28;20028;-20
2021/12/08 08:44:15;;;;;;;;;;;;;;;4.56;71.83;99378.00;5091582;28;20060;-20
2021/12/08 08:46:43;;;;;;;18.02;10.07;;;;;;;4.41;71.60;99349.09;5072757;28;20433;-21
2021/12/08 08:49:14;;;;;;;22.05;12.63;;;;;;;4.66;72.65;99353.84;5091036;28;20408;-20
2021/12/08 08:51:49;;;;;;;21.75;10.50;;;;;;;4.85;71.63;99368.97;5090963;28;20044;-20
2021/12/08 08:54:20;;;;;;;21.92;12.52;;;;;;;5.07;71.87;99367.00;5091053;28;20032;-20
2021/12/08 08:56:49;;;;;;;21.25;11.18;;;;;;;5.19;70.25;99354.81;5090748;28;20028;-20
2021/12/08 08:59:19;;;;;;;16.35;9.32;;;;;;;5.28;70.75;99338.78;5091056;28;20039;-20
2021/12/08 09:01:48;;;;;;;19.85;11.00;;;;;;;5.22;71.62;99349.13;5091121;28;20040;-20
2021/12/08 09:04:17;;;;;;;21.20;11.95;;;;;;;4.89;70.79;99343.78;5090868;28;20085;-20
2021/12/08 09:06:46;;;;;;;19.25;10.82;;;;;;;5.03;72.09;99360.50;5090635;28;20135;-20
2021/12/08 09:09:14;;;;;;;15.13;9.20;;;;;;;4.93;70.18;99341.56;5090814;28;20488;-20
2021/12/08 09:12:04;;;;;;;17.45;9.70;;;;;;;5.02;69.74;99340.34;5088808;28;20043;-20
2021/12/08 09:14:34;;;;;;;20.98;11.02;;;;;;;5.20;69.38;99347.69;5090562;28;20042;-20
2021/12/08 09:17:04;;;;;;;31.40;14.88;;;;;;;5.23;69.89;99349.94;5072096;28;20404;-20
2021/12/08 09:19:38;;;;;;;26.63;13.35;;;;;;;5.23;69.25;99336.72;5090214;28;20060;-19
2021/12/08 09:22:12;;;;;;;21.58;11.50;;;;;;;5.28;68.01;99347.50;5090526;28;20039;-20
2021/12/08 09:24:51;;;;;;;20.13;11.07;;;;;;;5.59;68.93;99344.25;5072247;28;20479;-20
2021/12/08 09:27:33;;;;;;;14.18;7.78;;;;;;;5.46;66.90;99346.09;5089828;28;20032;-21
2021/12/08 09:30:10;;;;;;;18.65;9.10;;;;;;;5.48;67.64;99344.88;5090136;28;20055;-20
2021/12/08 09:32:48;;;;;;;19.60;10.95;;;;;;;5.43;67.87;99332.28;5090083;28;20028;-21
2021/12/08 09:35:26;;;;;;;20.92;11.32;;;;;;;5.62;69.29;99320.06;5090314;28;20032;-20
2021/12/08 09:37:54;;;;;;;17.40;9.50;;;;;;;5.57;68.13;99334.91;5072560;28;20502;-20
2021/12/08 09:40:42;;;;;;;18.58;10.65;;;;;;;5.34;69.30;99308.88;5055255;28;20154;-21
2021/12/08 09:43:23;;;;;;;18.40;9.40;;;;;;;5.54;68.14;99328.19;5089987;28;20028;-20
2021/12/08 09:45:59;;;;;;;16.65;9.48;;;;;;;5.56;67.93;99333.28;5072137;28;20040;-21
2021/12/08 09:48:28;;;;;;;18.13;9.93;;;;;;;5.35;67.29;99323.72;5071964;28;20085;-20
2021/12/08 09:50:55;;;;;;;15.95;9.98;;;;;;;5.45;67.72;99305.59;5090113;28;20144;-20
2021/12/08 09:53:21;;;;;;;20.75;10.43;;;;;;;5.93;67.75;99318.59;5071366;28;20055;-20
2021/12/08 09:55:48;;;;;;;25.15;14.13;;;;;;;5.96;68.31;99323.47;5090138;28;20089;-20
2021/12/08 09:58:13;;;;;;;19.00;10.73;;;;;;;5.52;67.48;99322.31;5055213;28;20028;-20
2021/12/08 10:00:40;;;;;;;14.38;8.52;;;;;;;5.29;67.36;99327.16;5054882;28;20024;-20
2021/12/08 10:03:06;;;;;;;22.27;11.98;;;;;;;5.26;68.16;99323.09;5071750;28;20036;-20
2021/12/08 10:05:34;;;;;;;16.48;9.00;;;;;;;4.99;68.55;99332.84;5089454;28;20051;-20
2021/12/08 10:08:00;;;;;;;20.58;10.90;;;;;;;5.05;69.28;99326.75;5089683;28;20028;-20
2021/12/08 10:10:26;;;;;;;16.45;9.43;;;;;;;5.13;67.88;99312.50;5089494;28;20067;-20
2021/12/08 10:12:51;;;;;;;20.40;11.68;;;;;;;5.41;69.09;99320.25;5089517;28;20036;-20
2021/12/08 10:15:18;;;;;;;22.05;11.05;;;;;;;5.65;67.20;99316.19;5089007;28;20062;-20
2021/12/08 10:17:44;;;;;;;19.58;9.55;;;;;;;5.69;68.19;99311.31;5089261;28;20032;-21
2021/12/08 10:20:18;;;;;;;21.10;10.82;;;;;;;6.05;67.26;99313.50;5089813;28;20113;-20
2021/12/08 10:22:46;;;;;;;19.85;10.63;;;;;;;6.52;66.68;99318.63;5089279;28;20608;-20
2021/12/08 10:25:13;;;;;;;20.48;11.50;;;;;;;6.71;65.47;99319.56;5089644;28;20446;-20
2021/12/08 10:28:18;;;;;;;19.38;10.88;;;;;;;6.40;66.76;99329.88;5088928;28;20462;-20
2021/12/08 10:30:47;;;;;;;19.42;10.45;;;;;;;6.76;64.89;99325.03;5089088;28;20115;-20
2021/12/08 10:33:45;;;;;;;20.23;11.07;;;;;;;6.95;64.59;99325.97;5088939;28;20411;-20
2021/12/08 10:36:23;;;;;;;20.35;10.73;;;;;;;7.13;64.99;99320.75;5088599;28;20028;-20
2021/12/08 10:38:48;;;;;;;17.83;10.55;;;;;;;7.39;63.42;99329.53;5057678;28;20415;-20
2021/12/08 10:41:14;;;;;;;27.45;13.75;;;;;;;7.46;63.04;99319.69;5088892;28;20032;-20
2021/12/08 10:43:39;;;;;;;23.50;12.80;;;;;;;7.95;61.65;99339.25;5088600;28;20032;-20
2021/12/08 10:46:09;;;;;;;27.25;14.82;;;;;;;8.00;60.21;99328.78;5089156;28;20580;-20
2021/12/08 10:48:42;;;;;;;20.50;10.93;;;;;;;7.71;60.57;99329.47;5088450;28;20063;-20
2021/12/08 10:54:30;;;;;;;19.38;10.85;;;;;;;7.50;61.30;99336.78;5056783;28;20044;-20
2021/12/08 10:56:57;;;;;;;17.75;10.23;;;;;;;7.74;60.89;99329.03;5088672;28;20016;-20
2021/12/08 10:59:54;;;;;;;18.60;10.40;;;;;;;8.15;60.86;99343.53;5088769;28;20063;-20
2021/12/08 11:02:51;;;;;;;15.00;8.70;;;;;;;8.25;60.06;99352.63;5080553;28;20043;-20
2021/12/08 11:05:25;;;;;;;17.52;10.10;;;;;;;8.30;59.44;99344.00;5088113;28;20423;-22
2021/12/08 11:08:14;;;;;;;17.63;9.93;;;;;;;8.22;59.43;99341.63;5088563;28;20032;-20
2021/12/08 11:10:49;;;;;;;14.45;8.88;;;;;;;8.36;58.34;99342.31;5088316;28;20057;-20
2021/12/08 11:13:17;;;;;;;19.00;10.45;;;;;;;8.19;60.23;99342.88;5088084;28;20044;-20
2021/12/08 11:15:43;;;;;;;15.93;8.27;;;;;;;8.62;58.08;99314.59;5087981;28;20020;-20
2021/12/08 11:18:17;;;;;;;15.65;9.25;;;;;;;8.93;59.09;99318.06;5088112;28;20020;-20
2021/12/08 11:20:47;;;;;;;19.48;11.10;;;;;;;8.64;59.09;99344.44;5088389;28;20020;-20
2021/12/08 11:23:15;;;;;;;26.95;14.10;;;;;;;8.70;59.49;99335.56;5088323;28;20024;-22
2021/12/08 11:25:45;;;;;;;17.33;10.05;;;;;;;8.38;57.33;99335.72;5088195;28;20109;-20
2021/12/08 11:28:25;;;;;;;20.73;12.10;;;;;;;8.99;56.31;99343.75;5088063;28;20036;-20
2021/12/08 11:30:52;;;;;;;19.45;11.45;;;;;;;8.64;55.49;99337.28;5088389;28;20032;-20
2021/12/08 11:33:21;;;;;;;22.52;12.75;;;;;;;8.52;57.33;99330.28;5087921;28;20118;-20
2021/12/08 11:35:47;;;;;;;21.27;11.45;;;;;;;7.87;57.89;99314.81;5088513;28;20256;-20
2021/12/08 11:38:12;;;;;;;16.30;9.32;;;;;;;7.94;57.97;99342.91;5087942;28;20039;-20
2021/12/08 11:40:38;;;;;;;17.40;11.05;;;;;;;7.91;58.26;99330.09;5087921;28;20384;-19
2021/12/08 11:43:03;;;;;;;20.13;12.25;;;;;;;8.14;57.08;99349.88;5087928;28;20032;-20
2021/12/08 11:45:36;;;;;;;15.85;9.25;;;;;;;8.20;58.43;99351.66;5087110;28;20043;-20
2021/12/08 11:48:02;;;;;;;14.75;8.93;;;;;;;8.49;57.20;99322.75;5087540;28;20039;-19
2021/12/08 11:50:27;;;;;;;14.63;9.52;;;;;;;9.13;54.94;99353.16;5087928;28;20099;-21
2021/12/08 11:52:53;;;;;;;16.35;10.50;;;;;;;8.97;56.03;99359.13;5069568;28;20040;-20
2021/12/08 11:55:19;;;;;;;12.05;7.53;;;;;;;8.79;54.44;99347.50;5087677;28;20028;-20
2021/12/08 11:57:48;;;;;;;13.25;8.65;;;;;;;9.08;54.90;99342.41;5087637;28;20028;-20
2021/12/08 12:00:14;;;;;;;14.80;8.98;;;;;;;9.43;54.58;99355.00;5087756;28;20050;-20
2021/12/08 12:03:07;;;;;;;13.95;8.88;;;;;;;9.54;53.49;99364.88;5087673;28;20078;-20
2021/12/08 12:05:43;;;;;;;14.52;9.02;;;;;;;9.31;54.14;99359.47;5079466;28;20040;-21
2021/12/08 12:14:12;;;;;;;15.06;8.92;;;;;;;9.19;54.01;99362.94;5002288;27;8107419;-20
2021/12/08 12:16:38;;;;;;;14.20;8.55;;;;;;;9.23;53.40;99369.44;5126002;28;20228;-20
2021/12/08 12:19:04;;;;;;;13.43;7.88;;;;;;;9.36;52.08;99370.28;5124756;28;20027;-20
2021/12/08 12:22:06;;;;;;;13.07;8.23;;;;;;;9.73;51.63;99340.81;5126038;27;20162;-20
2021/12/08 12:24:44;;;;;;;14.25;8.57;;;;;;;9.64;51.77;99369.59;5093625;27;20573;-19
2021/12/08 12:27:28;;;;;;;;;;;;;;;10.35;50.91;99375.78;5124901;28;20043;-20
2021/12/08 12:29:57;;;;;;;13.45;8.73;;;;;;;9.80;50.79;99363.59;5125725;28;19908;-20
2021/12/08 12:32:25;;;;;;;13.48;8.10;;;;;;;9.98;51.37;99369.88;5124499;28;20043;-20
2021/12/08 12:34:53;;;;;;;12.73;7.72;;;;;;;10.76;49.17;99378.47;5125888;27;20058;-20
2021/12/08 12:37:33;;;;;;;12.65;8.63;;;;;;;11.08;48.14;99378.81;5124283;28;20582;-20
2021/12/08 12:39:58;;;;;;;10.95;7.25;;;;;;;10.80;48.05;99376.94;5125425;27;20062;-20
2021/12/08 12:42:25;;;;;;;14.27;8.80;;;;;;;11.16;48.39;99386.44;5125511;27;20796;-20